Escuela de Aviación
Dean International

Program Pricing

Bienvenidos a Dean International

Durante mas de 20 años, Dean International ha educado a más de 7,000 pilotos en el mundo. Ofreciendo entrenamiento de gran calidad, un personal de servicio amable, una amplia variedad de aviones y mejorando constantemente, nos hemos convertido en una de las escuelas de aviación más grandes y prestigiosas aprobada por la FAA. Situada en el Aeropuerto Ejecutivo Kendall-Tamiami ubicado en Miami, Florida, EE.UU., nuestra escuela de aviación ofrece un ambiente ideal para aprender a volar durante todo el año y esta bien equipado para prestar servicios a los alumnos de la comunidad general de aviación. Visitenos o contáctenos hoy para obtener mas información, o simplemente lea más sobre nuestros programas, si usted es un estudiante internacional interesado en unirse a nuestra escuela.
Tiempo Local
TAF FOR KTMB (Issued: Sat, June 25th 2016 3:57 AM UTC)
TAF
      AMD KTMB 250255Z 2503/2524 09006KT P6SM FEW025 SCT250
      FM251400 12008KT P6SM VCSH SCT025 SCT250
     
METAR FOR KTMB (Issued: Sat, June 25th 2016 4:53 AM UTC):
KTMB 250453Z AUTO 12006KT 10SM FEW023 28/24 A3007 RMK AO2 SLP183 T02830244 403280244 TSNO

This weather information is provided by the National Weather Service.
It is automatically refreshed every three minutes.
TAF FOR KHST (Issued: Sat, June 25th 2016 12:06 AM UTC)
TAF KHST 250000Z 2500/2606 11009KT 9999 FEW020 QNH2999INS
      BECMG 2508/2509 15009KT 9999 BKN040 QNH3000INS
      BECMG 2519/2520 11012KT 9999 SKC QNH3008INS TX31/2518Z TN25/2512Z
     
METAR FOR KHST (Issued: Sat, June 25th 2016 4:23 AM UTC):
KHST 250423Z AUTO 11004KT 10SM FEW020 SCT026 28/25 A3008 RMK AO2

This weather information is provided by the National Weather Service.
It is automatically refreshed every three minutes.
TAF FOR KOPF (Issued: Sat, June 25th 2016 3:57 AM UTC)
TAF
      AMD KOPF 250255Z 2503/2524 11005KT P6SM FEW025 SCT250
      FM251400 13009KT P6SM VCSH SCT025 SCT250
     
METAR FOR KOPF (Issued: Sat, June 25th 2016 4:53 AM UTC):
KOPF 250453Z AUTO 12007KT 10SM CLR 28/24 A3008 RMK AO2 SLP188 T02830244 403280261

This weather information is provided by the National Weather Service.
It is automatically refreshed every three minutes.
TAF FOR KMIA (Issued: Sat, June 25th 2016 3:57 AM UTC)
TAF
      AMD KMIA 250255Z 2503/2524 11007KT P6SM FEW025 SCT250
      TEMPO 2507/2511 VRB03KT
      FM251400 12010KT P6SM VCSH SCT025 SCT250
     
METAR FOR KMIA (Issued: Sat, June 25th 2016 4:53 AM UTC):
KMIA 250453Z 10008KT 10SM FEW020 FEW034 SCT080 SCT250 28/24 A3008 RMK AO2 SLP186 T02830244 403220261 $

This weather information is provided by the National Weather Service.
It is automatically refreshed every three minutes.
Diseño por Ariel Llizo
© Dean International Inc. 2012